Time;durP1;ratioP1;P1;durP2;ratioP2;P2;SDS_P1;SDS_P2;PMS_P1;PMS_P2;Temp;Humidity;BMP_temperature;BMP_pressure;BME280_temperature;BME280_humidity;BME280_pressure;Samples;Min_cycle;Max_cycle;Signal;HPM_P1;HPM_P2
2022/03/22 00:03:09;;;;;;;53.20;27.70;;;;;;;6.51;34.73;101141.23;233287;1219;140847;-58
2022/03/22 00:08:12;;;;;;;59.30;29.10;;;;;;;6.43;35.44;101139.20;233248;1215;139417;-58
2022/03/22 00:13:15;;;;;;;53.30;28.00;;;;;;;6.32;35.51;101139.67;233151;1217;139250;-55
2022/03/22 00:18:19;;;;;;;58.30;29.10;;;;;;;6.17;35.94;101142.30;233230;1219;141457;-58
2022/03/22 00:23:22;;;;;;;65.30;32.90;;;;;;;6.02;36.04;101145.80;233383;1217;139501;-58
2022/03/22 00:28:25;;;;;;;64.90;35.50;;;;;;;5.82;36.13;101144.89;233246;1217;141376;-57
2022/03/22 00:33:30;;;;;;;70.40;35.70;;;;;;;5.63;36.37;101143.63;233245;1217;138985;-58
2022/03/22 00:38:32;;;;;;;72.90;35.80;;;;;;;5.45;36.67;101140.42;233147;1217;139330;-58
2022/03/22 00:43:36;;;;;;;76.10;35.20;;;;;;;5.27;36.93;101136.67;233268;1217;139153;-58
2022/03/22 00:48:40;;;;;;;66.40;34.40;;;;;;;5.14;37.18;101135.70;233278;1217;139483;-60
2022/03/22 00:53:45;;;;;;;73.70;36.10;;;;;;;5.00;37.32;101135.42;233333;1217;138953;-60
2022/03/22 01:00:01;;;;;;;65.00;34.20;;;;;;;4.90;37.82;101135.13;233235;1217;140343;-57
2022/03/22 01:04:12;;;;;;;69.50;34.80;;;;;;;4.82;38.05;101134.27;233236;1217;138903;-59
2022/03/22 01:09:15;;;;;;;67.20;34.70;;;;;;;4.77;38.26;101135.71;233275;1217;140257;-59
2022/03/22 01:14:18;;;;;;;70.70;35.20;;;;;;;4.69;38.63;101139.63;233179;1219;139932;-58
2022/03/22 01:19:21;;;;;;;66.80;33.60;;;;;;;4.63;38.76;101138.23;233019;1217;139315;-58
2022/03/22 01:24:25;;;;;;;64.80;34.50;;;;;;;4.55;38.87;101137.39;233265;1219;140207;-57
2022/03/22 01:29:28;;;;;;;64.80;33.70;;;;;;;4.44;39.10;101140.76;233344;1218;139662;-57
2022/03/22 01:34:31;;;;;;;61.90;33.00;;;;;;;4.38;39.33;101139.38;233263;1218;139140;-56
2022/03/22 01:39:34;;;;;;;61.90;32.40;;;;;;;4.32;39.39;101138.86;233265;1219;138973;-56
2022/03/22 01:44:37;;;;;;;61.80;32.60;;;;;;;4.28;39.36;101141.34;233159;1219;139281;-58
2022/03/22 01:49:41;;;;;;;65.20;31.10;;;;;;;4.27;39.40;101140.45;233142;1219;139291;-58
2022/03/22 01:54:44;;;;;;;61.10;31.50;;;;;;;4.26;39.41;101136.23;233154;1218;139291;-58
2022/03/22 01:59:47;;;;;;;63.10;31.20;;;;;;;4.27;39.54;101132.91;233352;1219;139305;-57
2022/03/22 02:10:13;;;;;;;64.30;31.70;;;;;;;4.26;39.77;101131.50;233119;1219;139468;-57
2022/03/22 02:15:16;;;;;;;61.90;31.50;;;;;;;4.22;40.00;101128.86;233137;1219;139133;-57
2022/03/22 02:20:20;;;;;;;67.10;32.80;;;;;;;4.17;40.17;101127.66;233239;1219;139449;-57
2022/03/22 02:25:23;;;;;;;69.80;34.40;;;;;;;4.13;40.23;101124.67;233234;1217;138788;-58
2022/03/22 02:30:26;;;;;;;70.20;33.70;;;;;;;4.05;40.36;101124.88;233247;1217;139951;-58
2022/03/22 02:35:30;;;;;;;64.40;32.70;;;;;;;3.95;40.22;101123.83;233416;1217;142133;-59
2022/03/22 02:40:33;;;;;;;67.60;33.60;;;;;;;3.82;40.56;101124.89;233250;1217;140617;-57
2022/03/22 02:45:36;;;;;;;66.20;33.50;;;;;;;3.69;40.87;101128.41;233264;1217;139277;-57
2022/03/22 02:50:39;;;;;;;69.40;34.30;;;;;;;3.59;41.08;101129.81;233302;1217;139361;-58
2022/03/22 02:55:42;;;;;;;72.10;35.70;;;;;;;3.50;41.06;101130.70;233246;1217;139607;-59
2022/03/22 03:00:45;;;;;;;66.10;34.50;;;;;;;3.45;41.34;101134.01;233300;1218;139997;-58
2022/03/22 03:05:50;;;;;;;67.00;35.00;;;;;;;3.36;41.63;101137.88;233498;1217;139604;-61
2022/03/22 03:10:54;;;;;;;73.70;34.70;;;;;;;3.30;41.75;101142.09;233288;1217;139291;-59
2022/03/22 03:15:57;;;;;;;71.60;35.80;;;;;;;3.26;42.03;101146.80;233256;1217;139644;-58
2022/03/22 03:21:00;;;;;;;70.30;35.10;;;;;;;3.24;42.15;101151.02;233477;1217;139667;-60
2022/03/22 03:26:03;;;;;;;73.60;35.90;;;;;;;3.20;42.26;101146.27;233252;1217;140244;-57
2022/03/22 03:31:07;;;;;;;67.60;34.80;;;;;;;3.14;42.25;101151.34;233264;1217;139185;-57
2022/03/22 03:36:10;;;;;;;67.90;34.30;;;;;;;3.07;42.57;101150.98;233275;1217;139416;-57
2022/03/22 03:51:57;;;;;;;67.50;33.70;;;;;;;2.83;43.04;101153.70;233291;1217;139902;-58
2022/03/22 03:57:01;;;;;;;69.90;33.70;;;;;;;2.80;43.17;101155.98;233300;1217;139238;-56
2022/03/22 04:02:08;;;;;;;66.10;33.20;;;;;;;2.80;43.29;101154.91;233322;1217;139635;-56
2022/03/22 04:07:12;;;;;;;62.50;32.00;;;;;;;2.79;43.32;101154.57;233376;1217;141399;-56
2022/03/22 04:12:16;;;;;;;64.50;31.30;;;;;;;2.75;43.51;101163.14;233250;1217;139380;-57
2022/03/22 04:17:19;;;;;;;57.40;30.30;;;;;;;2.69;43.83;101165.73;233388;1218;138530;-60
2022/03/22 04:22:23;;;;;;;61.90;30.70;;;;;;;2.62;43.75;101168.87;233272;1219;163698;-58
2022/03/22 04:32:48;;;;;;;61.00;30.90;;;;;;;2.57;44.13;101176.54;233189;1219;139496;-58
2022/03/22 04:37:55;;;;;;;60.10;30.40;;;;;;;2.55;44.03;101173.92;233207;1218;138865;-58
2022/03/22 04:42:59;;;;;;;68.80;30.80;;;;;;;2.53;44.20;101172.33;233273;1218;139400;-59
2022/03/22 04:48:02;;;;;;;65.40;31.10;;;;;;;2.52;44.14;101173.89;233315;1217;139125;-58
2022/03/22 04:58:29;;;;;;;63.00;30.70;;;;;;;2.45;44.40;101192.42;233273;1217;139766;-58
2022/03/22 05:03:32;;;;;;;56.60;29.90;;;;;;;2.44;44.62;101201.00;233259;1217;139490;-57
2022/03/22 05:08:35;;;;;;;61.80;30.90;;;;;;;2.44;44.70;101196.09;233187;1219;139055;-58
2022/03/22 05:13:38;;;;;;;65.20;31.60;;;;;;;2.46;44.75;101195.41;233274;1219;138957;-58
2022/03/22 05:18:42;;;;;;;64.60;31.50;;;;;;;2.48;44.95;101192.61;233119;1217;140170;-56
2022/03/22 05:23:45;;;;;;;62.50;31.00;;;;;;;2.49;44.97;101194.90;233496;1217;139037;-58
2022/03/22 05:28:48;;;;;;;63.10;32.30;;;;;;;2.52;45.29;101198.59;233145;1219;139618;-58
2022/03/22 05:33:54;;;;;;;57.40;30.50;;;;;;;2.59;45.40;101196.00;233215;1218;139199;-58
2022/03/22 05:38:57;;;;;;;59.90;30.30;;;;;;;2.64;45.45;101193.94;233190;1217;141289;-57
2022/03/22 05:44:00;;;;;;;55.70;30.00;;;;;;;2.71;45.43;101195.55;233223;1217;141618;-60
2022/03/22 05:49:03;;;;;;;79.30;41.90;;;;;;;2.81;45.87;101197.50;233129;1217;139992;-57
2022/03/22 05:54:07;;;;;;;68.00;33.80;;;;;;;3.02;45.87;101201.11;233133;1217;138844;-58
2022/03/22 05:59:10;;;;;;;64.40;32.50;;;;;;;3.08;45.49;101202.88;233226;1217;139071;-58
2022/03/22 06:04:13;;;;;;;64.10;33.60;;;;;;;3.13;45.63;101200.27;233092;1219;139271;-57
2022/03/22 06:09:16;;;;;;;70.30;33.10;;;;;;;3.21;45.82;101205.02;233029;1217;139499;-57
2022/03/22 06:14:19;;;;;;;59.80;31.50;;;;;;;3.34;45.95;101211.91;233138;1217;140015;-57
2022/03/22 06:19:22;;;;;;;60.30;31.70;;;;;;;3.51;45.85;101215.11;233048;1217;139329;-54
2022/03/22 06:24:26;;;;;;;307.90;211.40;;;;;;;3.77;45.89;101214.59;233101;1217;139336;-57
2022/03/22 06:29:29;;;;;;;74.90;39.70;;;;;;;4.13;45.80;101217.77;233311;1217;139494;-58
2022/03/22 06:34:32;;;;;;;64.30;33.30;;;;;;;4.37;45.48;101220.04;233059;1217;139587;-58
2022/03/22 06:39:35;;;;;;;71.50;33.30;;;;;;;4.53;45.11;101220.89;233207;1217;139377;-58
2022/03/22 06:44:39;;;;;;;65.00;33.80;;;;;;;4.68;44.99;101221.89;233201;1217;139293;-57
2022/03/22 06:49:43;;;;;;;62.00;32.70;;;;;;;4.85;45.03;101220.96;233185;1217;140664;-59
2022/03/22 06:54:46;;;;;;;66.60;32.70;;;;;;;5.03;44.68;101219.67;233203;1217;138975;-58
2022/03/22 06:59:49;;;;;;;67.10;34.00;;;;;;;5.20;44.38;101219.77;233331;1217;140381;-60
2022/03/22 07:04:52;;;;;;;62.20;33.40;;;;;;;5.37;44.15;101219.16;233232;1217;139430;-58
2022/03/22 07:09:55;;;;;;;67.20;35.00;;;;;;;5.57;43.96;101223.45;233199;1217;138853;-58
2022/03/22 07:14:59;;;;;;;540.40;402.20;;;;;;;5.75;43.79;101217.50;233163;1217;139539;-58
2022/03/22 07:20:02;;;;;;;83.40;47.20;;;;;;;5.99;43.97;101220.69;233222;1217;139344;-60
2022/03/22 07:25:05;;;;;;;66.30;36.10;;;;;;;6.19;43.39;101222.29;233212;1217;139110;-58
2022/03/22 07:30:12;;;;;;;66.80;35.80;;;;;;;6.35;43.28;101224.62;233246;1217;209577;-58
2022/03/22 07:35:17;;;;;;;73.60;36.10;;;;;;;6.53;43.31;101225.85;233200;1217;139817;-58
2022/03/22 07:40:20;;;;;;;75.00;36.40;;;;;;;6.72;43.08;101225.11;233130;1217;139953;-58
2022/03/22 07:45:23;;;;;;;384.90;249.90;;;;;;;6.92;43.31;101220.30;233122;1219;139136;-58
2022/03/22 07:55:48;;;;;;;62.80;35.50;;;;;;;7.45;41.99;101217.14;232728;1217;139205;-62
2022/03/22 08:00:52;;;;;;;59.10;32.90;;;;;;;7.63;41.79;101222.70;233144;1217;139991;-62
2022/03/22 08:05:55;;;;;;;60.60;31.60;;;;;;;7.82;41.33;101219.08;233270;1218;138947;-61
2022/03/22 08:11:05;;;;;;;54.70;30.90;;;;;;;8.01;41.18;101217.70;233305;1217;139422;-57
2022/03/22 08:16:09;;;;;;;54.30;29.30;;;;;;;8.22;40.88;101214.52;233174;1217;140585;-58
2022/03/22 08:21:12;;;;;;;44.60;24.30;;;;;;;8.40;40.68;101210.86;233102;1217;139717;-60
2022/03/22 08:26:16;;;;;;;46.20;26.40;;;;;;;8.58;40.06;101212.13;233220;1217;139483;-60
2022/03/22 08:31:21;;;;;;;50.30;28.20;;;;;;;8.78;39.72;101206.08;233159;1217;140344;-58
2022/03/22 08:36:24;;;;;;;465.00;311.60;;;;;;;8.97;39.66;101206.94;233235;1217;139040;-58
2022/03/22 08:41:27;;;;;;;68.30;38.80;;;;;;;9.23;39.83;101205.86;233347;1217;140979;-59
2022/03/22 08:46:30;;;;;;;58.20;32.60;;;;;;;9.47;39.43;101199.30;233219;1217;139522;-58
2022/03/22 08:51:34;;;;;;;60.30;31.60;;;;;;;9.67;38.90;101192.82;233170;1217;139528;-58
2022/03/22 08:56:37;;;;;;;63.80;31.60;;;;;;;9.83;38.43;101191.90;233211;1219;139363;-58
2022/03/22 09:01:40;;;;;;;53.20;29.80;;;;;;;10.00;38.29;101184.58;233117;1218;139173;-60
2022/03/22 09:06:44;;;;;;;55.60;30.10;;;;;;;10.13;38.00;101183.33;233197;1217;139725;-58
2022/03/22 09:11:47;;;;;;;54.60;29.00;;;;;;;10.31;37.78;101172.27;233393;1217;139657;-56
2022/03/22 09:16:50;;;;;;;53.90;29.40;;;;;;;10.46;37.65;101169.90;233212;1217;139679;-57
2022/03/22 09:21:53;;;;;;;48.70;26.00;;;;;;;10.65;37.60;101162.11;233145;1217;139503;-58
2022/03/22 09:26:56;;;;;;;47.40;26.50;;;;;;;10.86;37.27;101161.13;233190;1217;139924;-58
2022/03/22 09:31:59;;;;;;;43.10;25.90;;;;;;;11.08;37.19;101154.63;233007;1218;139419;-58
2022/03/22 09:37:02;;;;;;;47.50;27.90;;;;;;;11.25;36.95;101152.51;233327;1217;139728;-58
2022/03/22 09:42:07;;;;;;;55.90;30.60;;;;;;;11.42;36.81;101151.13;233288;1217;139618;-58
2022/03/22 09:47:10;;;;;;;135.00;86.70;;;;;;;11.63;36.92;101146.16;233328;1217;139602;-57
2022/03/22 09:52:15;;;;;;;59.60;31.50;;;;;;;12.03;37.78;101138.61;233037;1217;139882;-56
2022/03/22 09:57:17;;;;;;;49.20;29.10;;;;;;;12.25;36.58;101137.70;233216;1217;140036;-57
2022/03/22 10:02:32;;;;;;;43.50;24.30;;;;;;;12.30;36.28;101129.48;233281;1217;139214;-57
2022/03/22 10:07:35;;;;;;;48.40;27.60;;;;;;;12.38;35.84;101126.73;233189;1217;139875;-56
2022/03/22 10:12:38;;;;;;;47.30;26.90;;;;;;;12.50;35.53;101120.23;233155;1217;139211;-58
2022/03/22 10:17:43;;;;;;;44.40;26.00;;;;;;;12.66;35.67;101118.04;233450;1217;139530;-58
2022/03/22 10:22:54;;;;;;;52.70;27.20;;;;;;;12.84;35.39;101116.48;233131;1217;139501;-57
2022/03/22 10:28:00;;;;;;;45.60;26.70;;;;;;;13.07;35.37;101110.79;233181;1217;139844;-57
2022/03/22 10:33:03;;;;;;;53.20;27.70;;;;;;;13.32;35.08;101109.84;233265;1217;140121;-58
2022/03/22 10:38:09;;;;;;;51.60;28.80;;;;;;;13.60;34.68;101106.54;233197;1217;139384;-58
2022/03/22 10:43:15;;;;;;;53.50;27.10;;;;;;;13.82;34.64;101097.05;233170;1217;140129;-57
2022/03/22 10:48:19;;;;;;;;;;;;;;;14.10;34.27;101092.10;233048;1218;140585;-56
2022/03/22 10:53:24;;;;;;;188.30;129.30;;;;;;;14.40;34.27;101090.95;233221;1217;126137;-57
2022/03/22 10:58:35;;;;;;;50.50;28.20;;;;;;;14.67;34.45;101079.21;233078;1219;139993;-58
2022/03/22 11:03:39;;;;;;;41.90;25.40;;;;;;;14.93;33.93;101073.89;233116;1219;139259;-57
2022/03/22 11:08:42;;;;;;;41.60;25.60;;;;;;;15.11;34.49;101067.32;233200;1217;139546;-57
2022/03/22 11:13:45;;;;;;;170.90;107.50;;;;;;;15.32;35.67;101059.49;233177;1217;140881;-59
2022/03/22 11:18:49;;;;;;;62.30;39.70;;;;;;;16.05;38.94;101050.98;233037;1217;139908;-57
2022/03/22 11:24:10;;;;;;;46.70;29.20;;;;;;;16.94;38.61;101041.13;233162;1217;139476;-57
2022/03/22 11:29:19;;;;;;;61.10;29.10;;;;;;;17.65;37.86;101030.20;233209;1217;139825;-57
2022/03/22 11:34:22;;;;;;;49.40;24.90;;;;;;;18.13;37.31;101020.50;233165;1217;139795;-57
2022/03/22 11:44:56;;;;;;;44.40;23.70;;;;;;;18.66;36.20;101010.48;233098;1217;139325;-58
2022/03/22 11:50:07;;;;;;;;;;;;;;;18.82;35.47;100999.64;233218;1217;139532;-59
2022/03/22 11:55:11;;;;;;;35.10;21.00;;;;;;;18.93;34.92;100994.21;233188;1217;126127;-59
2022/03/22 12:00:17;;;;;;;37.90;20.50;;;;;;;18.91;33.44;100988.07;233303;1217;140031;-58
2022/03/22 12:05:22;;;;;;;246.30;178.00;;;;;;;18.97;33.73;100982.24;233145;1217;139995;-57
2022/03/22 12:10:26;;;;;;;32.60;22.70;;;;;;;19.18;33.88;100978.35;233200;1218;140654;-56
2022/03/22 12:15:29;;;;;;;34.00;21.60;;;;;;;19.37;33.47;100967.16;233070;1217;141033;-59
2022/03/22 12:20:32;;;;;;;36.30;24.70;;;;;;;19.59;33.92;100958.80;233138;1217;139326;-57
2022/03/22 12:25:36;;;;;;;32.80;21.70;;;;;;;19.96;34.06;100952.99;233118;1217;139461;-58
2022/03/22 12:30:44;;;;;;;28.10;18.00;;;;;;;20.25;33.98;100942.16;233163;1217;139263;-57
2022/03/22 12:35:48;;;;;;;32.50;19.10;;;;;;;20.44;33.89;100936.59;233163;1217;139412;-57
2022/03/22 12:40:51;;;;;;;27.50;17.90;;;;;;;20.64;33.72;100930.30;233133;1217;140857;-57
2022/03/22 12:45:56;;;;;;;27.20;17.30;;;;;;;20.79;33.61;100922.90;233142;1217;139531;-58
2022/03/22 12:50:59;;;;;;;23.70;15.80;;;;;;;20.95;33.43;100918.98;233157;1217;139670;-57
2022/03/22 12:56:12;;;;;;;24.40;15.50;;;;;;;21.11;32.75;100914.04;233187;1217;140482;-59
2022/03/22 13:01:19;;;;;;;24.60;14.90;;;;;;;21.23;32.45;100899.73;233188;1217;139624;-57
2022/03/22 13:06:22;;;;;;;23.50;13.80;;;;;;;21.37;32.25;100895.95;233191;1217;139830;-57
2022/03/22 13:11:29;;;;;;;21.10;13.10;;;;;;;21.52;31.76;100892.29;233296;1217;139425;-58
2022/03/22 13:16:34;;;;;;;74.70;61.10;;;;;;;21.62;30.69;100884.98;233200;1217;139262;-57
2022/03/22 13:21:39;;;;;;;30.60;20.20;;;;;;;21.78;30.48;100878.25;233106;1217;141661;-58
2022/03/22 13:27:02;;;;;;;16.40;11.30;;;;;;;22.10;30.41;100881.10;233085;1217;139861;-59
2022/03/22 13:32:08;;;;;;;18.20;12.90;;;;;;;22.35;30.19;100869.58;233178;1217;139818;-59
2022/03/22 13:37:15;;;;;;;;;;;;;;;22.54;29.78;100867.96;233164;1217;139726;-59
2022/03/22 13:42:20;;;;;;;22.10;11.40;;;;;;;22.80;29.45;100868.50;233274;1217;126643;-59
2022/03/22 13:47:32;;;;;;;16.80;11.60;;;;;;;22.99;29.44;100860.23;233196;1217;139556;-58
2022/03/22 13:52:36;;;;;;;17.60;11.70;;;;;;;23.15;28.87;100856.18;233137;1217;140141;-59
2022/03/22 13:57:39;;;;;;;21.10;12.20;;;;;;;23.14;28.72;100859.69;233152;1217;139489;-58
2022/03/22 14:02:42;;;;;;;18.70;11.40;;;;;;;22.81;28.15;100851.77;233160;1217;141376;-59
2022/03/22 14:07:56;;;;;;;271.00;227.20;;;;;;;22.32;28.58;100845.58;233184;1217;139438;-59
2022/03/22 14:12:59;;;;;;;27.50;17.40;;;;;;;21.82;27.73;100844.15;233149;1217;140129;-61
2022/03/22 14:18:04;;;;;;;21.20;13.20;;;;;;;21.32;27.18;100840.13;233281;1217;139652;-59
2022/03/22 14:23:08;;;;;;;25.60;14.80;;;;;;;20.79;26.99;100833.56;233111;1219;140420;-57
2022/03/22 14:28:11;;;;;;;20.50;12.70;;;;;;;20.26;26.85;100842.19;233030;1217;143387;-59
2022/03/22 14:33:18;;;;;;;24.10;14.30;;;;;;;19.87;26.96;100838.20;233162;1217;139949;-56
2022/03/22 14:38:26;;;;;;;23.10;14.40;;;;;;;19.50;27.04;100833.08;233149;1219;139379;-56
2022/03/22 14:43:31;;;;;;;22.70;14.00;;;;;;;19.21;27.25;100832.71;233149;1217;140404;-56
2022/03/22 14:48:35;;;;;;;;;;;;;;;18.95;27.30;100824.43;233186;1217;140598;-57
2022/03/22 14:59:00;;;;;;;32.70;15.50;;;;;;;18.47;27.31;100825.14;233125;1217;139458;-57
2022/03/22 15:04:04;;;;;;;19.80;13.40;;;;;;;18.32;27.44;100814.33;233410;1217;141890;-57
2022/03/22 15:09:08;;;;;;;23.80;13.40;;;;;;;18.17;27.20;100813.64;233646;1219;143118;-57
2022/03/22 15:14:15;;;;;;;21.00;12.90;;;;;;;18.01;27.43;100808.02;233664;1219;140767;-56
2022/03/22 15:19:18;;;;;;;25.60;13.60;;;;;;;17.89;27.69;100801.63;233793;1218;139566;-56
2022/03/22 15:24:22;;;;;;;29.00;12.80;;;;;;;17.79;27.71;100791.50;233608;1218;139634;-57
2022/03/22 15:29:25;;;;;;;23.20;11.10;;;;;;;17.70;27.77;100796.00;233249;1217;139153;-57
2022/03/22 15:34:28;;;;;;;17.80;10.90;;;;;;;17.57;27.59;100785.14;233032;1217;140125;-59
2022/03/22 15:39:30;;;;;;;257.40;167.40;;;;;;;17.49;27.84;100786.56;233080;1219;139578;-55
2022/03/22 15:44:33;;;;;;;25.80;15.10;;;;;;;17.47;28.23;100791.35;233107;1218;139480;-56
2022/03/22 15:49:37;;;;;;;24.50;12.00;;;;;;;17.40;28.12;100783.16;233111;1218;139641;-56
2022/03/22 15:54:44;;;;;;;18.30;10.70;;;;;;;17.36;28.10;100789.00;233254;1218;139755;-55
2022/03/22 15:59:48;;;;;;;21.30;11.00;;;;;;;17.29;28.21;100785.65;233100;1219;139903;-57
2022/03/22 16:04:51;;;;;;;23.20;10.70;;;;;;;17.22;28.33;100787.84;233171;1217;140519;-58
2022/03/22 16:09:54;;;;;;;25.40;10.70;;;;;;;17.13;28.31;100786.25;233176;1218;139736;-57
2022/03/22 16:14:57;;;;;;;21.80;10.20;;;;;;;17.08;28.47;100780.48;233137;1219;139315;-57
2022/03/22 16:20:00;;;;;;;25.00;11.30;;;;;;;16.96;28.71;100778.50;233193;1218;139688;-58
2022/03/22 16:25:04;;;;;;;22.30;10.50;;;;;;;17.14;29.91;100783.52;233289;1217;139607;-57
2022/03/22 16:30:12;;;;;;;21.90;10.30;;;;;;;17.25;29.20;100778.16;233114;1217;139333;-60
2022/03/22 16:40:38;;;;;;;40.20;19.60;;;;;;;16.99;28.27;100773.15;233178;1218;139918;-60
2022/03/22 16:45:41;;;;;;;544.80;324.50;;;;;;;16.84;28.11;100777.63;233082;1219;140425;-60
2022/03/22 16:50:49;;;;;;;60.50;30.30;;;;;;;16.68;28.30;100774.04;233145;1219;139751;-60
2022/03/22 16:56:01;;;;;;;46.90;14.90;;;;;;;16.50;28.16;100771.52;233216;1219;139931;-60
2022/03/22 17:01:06;;;;;;;35.90;14.00;;;;;;;16.33;28.38;100776.14;233395;1218;140312;-60
2022/03/22 17:06:09;;;;;;;29.90;15.40;;;;;;;16.16;28.22;100779.05;232641;1217;140468;-60
2022/03/22 17:11:12;;;;;;;31.40;16.80;;;;;;;16.02;28.35;100786.70;233106;1219;139806;-60
2022/03/22 17:16:16;;;;;;;66.90;43.60;;;;;;;15.85;28.73;100790.67;233073;1217;139751;-59
2022/03/22 17:21:20;;;;;;;34.50;17.10;;;;;;;15.72;28.79;100789.96;233104;1218;139308;-60
2022/03/22 17:26:23;;;;;;;35.10;17.80;;;;;;;15.52;28.72;100795.86;233109;1217;139454;-59
2022/03/22 17:31:28;;;;;;;31.80;17.50;;;;;;;15.32;28.93;100799.95;233170;1217;139999;-60
2022/03/22 17:36:31;;;;;;;32.30;17.10;;;;;;;15.13;29.11;100798.66;233128;1217;139567;-59
2022/03/22 17:41:35;;;;;;;36.40;18.30;;;;;;;14.97;29.24;100799.86;233084;1219;139301;-59
2022/03/22 17:46:38;;;;;;;36.90;18.80;;;;;;;14.84;29.25;100804.09;233099;1219;139738;-60
2022/03/22 17:51:41;;;;;;;48.80;20.10;;;;;;;14.69;29.42;100807.53;233130;1219;140328;-60
2022/03/22 17:56:44;;;;;;;39.90;20.30;;;;;;;14.58;29.45;100806.88;233028;1218;139323;-59
2022/03/22 18:01:47;;;;;;;42.50;22.90;;;;;;;14.49;29.55;100808.73;233121;1217;140461;-60
2022/03/22 18:06:50;;;;;;;46.30;23.10;;;;;;;14.36;29.69;100803.45;233166;1217;139562;-57
2022/03/22 18:11:54;;;;;;;37.10;22.00;;;;;;;14.27;29.52;100815.88;232949;1217;140860;-59
2022/03/22 18:16:57;;;;;;;39.80;22.10;;;;;;;14.16;29.80;100813.02;232994;1217;140562;-58
2022/03/22 18:22:01;;;;;;;48.30;23.70;;;;;;;14.04;30.08;100805.91;233013;1219;140043;-58
2022/03/22 18:27:05;;;;;;;100.70;58.90;;;;;;;14.17;31.02;100814.75;233064;1217;139915;-59
2022/03/22 18:32:08;;;;;;;52.50;26.90;;;;;;;14.48;30.89;100816.64;233110;1218;140085;-59
2022/03/22 18:37:12;;;;;;;50.40;25.30;;;;;;;14.31;30.45;100816.74;233097;1217;140587;-59
2022/03/22 18:42:15;;;;;;;46.00;26.10;;;;;;;14.07;30.22;100814.14;233140;1219;140918;-59
2022/03/22 18:47:19;;;;;;;55.60;25.90;;;;;;;13.86;30.48;100818.91;233203;1217;139775;-59
2022/03/22 18:52:22;;;;;;;52.30;27.20;;;;;;;13.63;30.52;100824.23;233009;1217;139749;-59
2022/03/22 18:57:45;;;;;;;55.90;28.40;;;;;;;13.40;30.60;100820.13;233108;1217;139993;-60
2022/03/22 19:02:49;;;;;;;61.00;29.00;;;;;;;13.16;30.96;100817.77;233229;1217;139699;-59
2022/03/22 19:07:54;;;;;;;55.20;28.20;;;;;;;12.95;31.44;100817.95;233098;1217;139919;-60
2022/03/22 19:12:57;;;;;;;58.30;30.30;;;;;;;12.75;31.66;100822.02;232815;1217;139241;-58
2022/03/22 19:18:00;;;;;;;55.20;29.50;;;;;;;12.63;31.67;100827.55;233023;1217;140565;-61
2022/03/22 19:23:04;;;;;;;55.00;29.00;;;;;;;12.50;32.17;100830.02;233195;1217;139475;-59
2022/03/22 19:28:08;;;;;;;175.90;112.80;;;;;;;12.33;32.59;100829.67;233023;1218;139656;-58
2022/03/22 19:33:17;;;;;;;65.80;33.40;;;;;;;12.24;32.78;100832.67;232867;1217;140514;-61
2022/03/22 19:38:23;;;;;;;63.20;31.60;;;;;;;12.09;33.25;100832.39;233064;1217;139039;-58
2022/03/22 19:43:27;;;;;;;67.60;32.30;;;;;;;11.88;33.27;100832.29;233224;1219;139675;-59
2022/03/22 19:48:30;;;;;;;69.20;30.70;;;;;;;11.68;33.58;100830.77;233148;1217;142163;-58
2022/03/22 19:53:34;;;;;;;61.90;31.50;;;;;;;11.45;33.95;100830.73;233006;1218;140619;-58
2022/03/22 19:58:37;;;;;;;69.70;32.90;;;;;;;11.24;34.22;100835.92;233100;1218;139844;-58
2022/03/22 20:03:43;;;;;;;80.90;33.80;;;;;;;11.04;34.59;100836.10;233057;1219;139163;-58
2022/03/22 20:09:07;;;;;;;79.30;34.70;;;;;;;10.87;35.28;100839.36;233070;1217;139452;-58
2022/03/22 20:14:13;;;;;;;77.40;37.30;;;;;;;10.73;35.33;100843.74;233139;1217;139163;-59
2022/03/22 20:19:16;;;;;;;89.30;41.20;;;;;;;10.57;35.61;100841.62;233202;1218;139103;-59
2022/03/22 20:24:22;;;;;;;94.40;41.10;;;;;;;10.41;35.75;100842.50;233189;1217;139323;-59
2022/03/22 20:29:25;;;;;;;84.30;41.60;;;;;;;10.21;36.16;100839.75;232902;1219;140098;-59
2022/03/22 20:34:28;;;;;;;134.00;76.90;;;;;;;10.01;36.34;100836.63;233108;1217;139707;-58
2022/03/22 20:39:32;;;;;;;94.00;54.90;;;;;;;9.95;37.05;100834.48;233127;1217;139754;-59
2022/03/22 20:44:36;;;;;;;91.20;47.00;;;;;;;9.98;37.38;100833.53;232943;1218;139023;-61
2022/03/22 20:49:39;;;;;;;91.00;46.20;;;;;;;9.84;36.97;100830.95;233143;1219;139370;-58
2022/03/22 20:54:42;;;;;;;89.70;45.00;;;;;;;9.65;37.28;100834.49;233273;1217;139085;-57
2022/03/22 20:59:46;;;;;;;94.10;46.70;;;;;;;9.46;37.61;100829.20;233208;1217;139382;-59
2022/03/22 21:04:49;;;;;;;90.80;45.10;;;;;;;9.31;37.76;100827.89;233161;1217;139236;-58
2022/03/22 21:09:52;;;;;;;91.70;46.10;;;;;;;9.17;38.12;100823.48;233212;1217;140760;-59
2022/03/22 21:14:56;;;;;;;101.30;48.60;;;;;;;9.04;38.37;100820.30;233176;1217;138728;-57
2022/03/22 21:20:00;;;;;;;93.30;48.30;;;;;;;8.91;38.61;100816.92;233194;1217;139626;-58
2022/03/22 21:25:05;;;;;;;95.20;47.80;;;;;;;8.81;38.77;100812.95;233365;1217;139368;-57
2022/03/22 21:30:10;;;;;;;99.60;50.10;;;;;;;8.68;39.18;100813.63;233168;1217;139060;-58
2022/03/22 21:35:14;;;;;;;94.40;50.60;;;;;;;8.54;39.22;100811.33;232999;1219;138780;-60
2022/03/22 21:40:17;;;;;;;101.50;51.40;;;;;;;8.45;39.49;100812.97;233230;1217;139385;-58
2022/03/22 21:45:24;;;;;;;115.10;53.80;;;;;;;8.35;39.45;100808.94;233254;1217;140244;-59
2022/03/22 21:50:28;;;;;;;107.00;53.80;;;;;;;8.25;39.70;100804.75;233214;1217;139145;-59
2022/03/22 21:55:32;;;;;;;112.30;53.50;;;;;;;8.13;39.83;100808.57;233384;1217;139429;-58
2022/03/22 22:00:35;;;;;;;102.40;52.00;;;;;;;7.99;39.90;100802.17;233185;1217;139221;-57
2022/03/22 22:05:39;;;;;;;103.60;53.00;;;;;;;7.88;40.17;100795.89;233213;1217;138818;-56
2022/03/22 22:10:42;;;;;;;99.20;51.00;;;;;;;7.78;40.30;100791.52;233245;1217;139387;-58
2022/03/22 22:15:45;;;;;;;104.00;50.50;;;;;;;7.68;40.39;100781.86;233281;1217;139100;-58
2022/03/22 22:20:49;;;;;;;94.40;50.60;;;;;;;7.54;40.69;100773.33;233186;1217;140010;-58
2022/03/22 22:25:52;;;;;;;97.70;48.60;;;;;;;7.45;40.61;100770.02;233248;1217;139868;-58
2022/03/22 22:30:55;;;;;;;86.80;47.80;;;;;;;7.32;41.03;100770.27;233416;1217;139287;-59
2022/03/22 22:35:58;;;;;;;87.10;44.90;;;;;;;7.20;40.91;100774.57;233252;1217;139110;-58
2022/03/22 22:41:01;;;;;;;89.30;46.50;;;;;;;7.09;41.24;100772.31;233301;1217;139056;-58
2022/03/22 22:46:04;;;;;;;89.40;47.30;;;;;;;7.01;41.39;100771.05;233316;1217;139118;-58
2022/03/22 22:51:07;;;;;;;85.90;45.00;;;;;;;6.96;41.77;100766.05;233180;1217;139271;-59
2022/03/22 22:56:12;;;;;;;93.70;46.00;;;;;;;6.89;41.86;100768.30;233222;1217;139544;-58
2022/03/22 23:01:17;;;;;;;86.80;46.60;;;;;;;6.80;41.60;100765.83;233297;1217;139605;-58
2022/03/22 23:10:08;;;;;;;;;;;;;;;6.74;41.94;100765.59;233350;1216;138986;-57
2022/03/22 23:11:43;;;;;;;85.10;44.60;;;;;;;6.64;42.30;100763.13;233311;1217;125187;-58
2022/03/22 23:16:49;;;;;;;86.80;45.30;;;;;;;6.56;42.10;100763.96;233242;1217;139869;-60
2022/03/22 23:21:52;;;;;;;86.40;44.80;;;;;;;6.51;42.38;100768.64;233205;1217;140276;-60
2022/03/22 23:26:59;;;;;;;90.10;47.10;;;;;;;6.45;42.61;100765.93;233176;1217;138882;-57
2022/03/22 23:32:02;;;;;;;86.80;45.90;;;;;;;6.38;42.83;100766.40;233071;1217;138938;-58